sensor_id;sensor_type;location;lat;lon;timestamp;temperature;humidity
74364;DHT22;62797;49.740;10.154;2024-01-16T00:00:34;-0.30;50.90
74364;DHT22;62797;49.740;10.154;2024-01-16T00:03:00;-0.30;51.20
74364;DHT22;62797;49.740;10.154;2024-01-16T00:05:25;-0.30;50.90
74364;DHT22;62797;49.740;10.154;2024-01-16T00:07:51;-0.40;51.30
74364;DHT22;62797;49.740;10.154;2024-01-16T00:10:17;-0.20;50.30
74364;DHT22;62797;49.740;10.154;2024-01-16T00:12:42;-0.30;50.60
74364;DHT22;62797;49.740;10.154;2024-01-16T00:15:09;-0.40;50.40
74364;DHT22;62797;49.740;10.154;2024-01-16T00:17:35;-0.30;50.00
74364;DHT22;62797;49.740;10.154;2024-01-16T00:20:00;-0.30;49.40
74364;DHT22;62797;49.740;10.154;2024-01-16T00:22:27;-0.40;50.30
74364;DHT22;62797;49.740;10.154;2024-01-16T00:24:53;-0.40;49.70
74364;DHT22;62797;49.740;10.154;2024-01-16T00:27:19;-0.40;49.20
74364;DHT22;62797;49.740;10.154;2024-01-16T00:29:45;-0.40;49.40
74364;DHT22;62797;49.740;10.154;2024-01-16T00:32:11;-0.40;49.00
74364;DHT22;62797;49.740;10.154;2024-01-16T00:34:42;-0.40;49.10
74364;DHT22;62797;49.740;10.154;2024-01-16T00:37:08;-0.40;48.90
74364;DHT22;62797;49.740;10.154;2024-01-16T00:39:33;-0.30;48.30
74364;DHT22;62797;49.740;10.154;2024-01-16T00:41:59;-0.40;48.60
74364;DHT22;62797;49.740;10.154;2024-01-16T00:44:25;-0.30;47.80
74364;DHT22;62797;49.740;10.154;2024-01-16T00:46:51;-0.40;48.30
74364;DHT22;62797;49.740;10.154;2024-01-16T00:49:16;-0.40;48.70
74364;DHT22;62797;49.740;10.154;2024-01-16T00:51:42;-0.50;48.60
74364;DHT22;62797;49.740;10.154;2024-01-16T00:54:08;-0.50;48.90
74364;DHT22;62797;49.740;10.154;2024-01-16T00:56:35;-0.40;48.50
74364;DHT22;62797;49.740;10.154;2024-01-16T00:59:02;-0.40;47.90
74364;DHT22;62797;49.740;10.154;2024-01-16T01:01:27;-0.40;48.70
74364;DHT22;62797;49.740;10.154;2024-01-16T01:03:53;-0.40;48.30
74364;DHT22;62797;49.740;10.154;2024-01-16T01:06:19;-0.50;48.30
74364;DHT22;62797;49.740;10.154;2024-01-16T01:08:45;-0.40;48.60
74364;DHT22;62797;49.740;10.154;2024-01-16T01:11:11;-0.50;49.20
74364;DHT22;62797;49.740;10.154;2024-01-16T01:13:37;-0.50;48.80
74364;DHT22;62797;49.740;10.154;2024-01-16T01:16:03;-0.40;48.00
74364;DHT22;62797;49.740;10.154;2024-01-16T01:18:29;-0.50;48.60
74364;DHT22;62797;49.740;10.154;2024-01-16T01:20:55;-0.50;48.80
74364;DHT22;62797;49.740;10.154;2024-01-16T01:23:21;-0.40;48.00
74364;DHT22;62797;49.740;10.154;2024-01-16T01:25:47;-0.50;48.40
74364;DHT22;62797;49.740;10.154;2024-01-16T01:28:13;-0.40;48.30
74364;DHT22;62797;49.740;10.154;2024-01-16T01:30:38;-0.40;47.80
74364;DHT22;62797;49.740;10.154;2024-01-16T01:33:04;-0.40;47.70
74364;DHT22;62797;49.740;10.154;2024-01-16T01:35:30;-0.40;47.40
74364;DHT22;62797;49.740;10.154;2024-01-16T01:37:56;-0.40;48.50
74364;DHT22;62797;49.740;10.154;2024-01-16T01:40:22;-0.40;47.30
74364;DHT22;62797;49.740;10.154;2024-01-16T01:42:48;-0.40;48.20
74364;DHT22;62797;49.740;10.154;2024-01-16T01:45:13;-0.40;48.20
74364;DHT22;62797;49.740;10.154;2024-01-16T01:47:40;-0.40;48.20
74364;DHT22;62797;49.740;10.154;2024-01-16T01:50:09;-0.40;48.40
74364;DHT22;62797;49.740;10.154;2024-01-16T01:52:36;-0.30;48.00
74364;DHT22;62797;49.740;10.154;2024-01-16T01:55:04;-0.40;48.00
74364;DHT22;62797;49.740;10.154;2024-01-16T01:57:33;-0.40;48.00
74364;DHT22;62797;49.740;10.154;2024-01-16T01:59:59;-0.40;47.50
74364;DHT22;62797;49.740;10.154;2024-01-16T02:02:27;-0.40;47.50
74364;DHT22;62797;49.740;10.154;2024-01-16T02:04:53;-0.30;48.20
74364;DHT22;62797;49.740;10.154;2024-01-16T02:07:19;-0.30;47.10
74364;DHT22;62797;49.740;10.154;2024-01-16T02:09:45;-0.30;47.00
74364;DHT22;62797;49.740;10.154;2024-01-16T02:12:10;-0.30;47.40
74364;DHT22;62797;49.740;10.154;2024-01-16T02:14:36;-0.50;47.50
74364;DHT22;62797;49.740;10.154;2024-01-16T02:17:03;-0.50;47.90
74364;DHT22;62797;49.740;10.154;2024-01-16T02:19:29;-0.50;47.90
74364;DHT22;62797;49.740;10.154;2024-01-16T02:21:59;-0.50;48.00
74364;DHT22;62797;49.740;10.154;2024-01-16T02:24:27;-0.50;48.10
74364;DHT22;62797;49.740;10.154;2024-01-16T02:26:53;-0.60;49.20
74364;DHT22;62797;49.740;10.154;2024-01-16T02:29:19;-0.50;48.50
74364;DHT22;62797;49.740;10.154;2024-01-16T02:31:45;-0.50;48.60
74364;DHT22;62797;49.740;10.154;2024-01-16T02:34:11;-0.70;48.90
74364;DHT22;62797;49.740;10.154;2024-01-16T02:36:36;-0.50;48.40
74364;DHT22;62797;49.740;10.154;2024-01-16T02:39:02;-0.50;48.10
74364;DHT22;62797;49.740;10.154;2024-01-16T02:41:28;-0.60;48.60
74364;DHT22;62797;49.740;10.154;2024-01-16T02:43:54;-0.50;48.00
74364;DHT22;62797;49.740;10.154;2024-01-16T02:46:20;-0.50;48.80
74364;DHT22;62797;49.740;10.154;2024-01-16T02:48:45;-0.50;48.20
74364;DHT22;62797;49.740;10.154;2024-01-16T02:51:12;-0.60;48.40
74364;DHT22;62797;49.740;10.154;2024-01-16T02:53:38;-0.70;48.70
74364;DHT22;62797;49.740;10.154;2024-01-16T02:56:08;-0.70;48.60
74364;DHT22;62797;49.740;10.154;2024-01-16T02:58:34;-0.70;48.70
74364;DHT22;62797;49.740;10.154;2024-01-16T03:01:00;-0.70;49.10
74364;DHT22;62797;49.740;10.154;2024-01-16T03:03:26;-0.70;49.40
74364;DHT22;62797;49.740;10.154;2024-01-16T03:05:52;-0.80;48.70
74364;DHT22;62797;49.740;10.154;2024-01-16T03:08:18;-0.80;49.00
74364;DHT22;62797;49.740;10.154;2024-01-16T03:10:43;-0.70;48.90
74364;DHT22;62797;49.740;10.154;2024-01-16T03:13:10;-0.90;49.30
74364;DHT22;62797;49.740;10.154;2024-01-16T03:15:36;-0.80;49.60
74364;DHT22;62797;49.740;10.154;2024-01-16T03:18:02;-0.90;49.90
74364;DHT22;62797;49.740;10.154;2024-01-16T03:20:28;-0.90;49.80
74364;DHT22;62797;49.740;10.154;2024-01-16T03:22:54;-0.80;49.20
74364;DHT22;62797;49.740;10.154;2024-01-16T03:25:20;-0.90;49.70
74364;DHT22;62797;49.740;10.154;2024-01-16T03:27:46;-0.90;49.80
74364;DHT22;62797;49.740;10.154;2024-01-16T03:30:12;-0.90;50.10
74364;DHT22;62797;49.740;10.154;2024-01-16T03:32:38;-0.90;50.00
74364;DHT22;62797;49.740;10.154;2024-01-16T03:35:05;-0.90;50.30
74364;DHT22;62797;49.740;10.154;2024-01-16T03:37:32;-0.80;50.40
74364;DHT22;62797;49.740;10.154;2024-01-16T03:39:57;-0.90;50.10
74364;DHT22;62797;49.740;10.154;2024-01-16T03:42:23;-0.80;49.90
74364;DHT22;62797;49.740;10.154;2024-01-16T03:44:50;-0.80;49.90
74364;DHT22;62797;49.740;10.154;2024-01-16T03:47:16;-0.80;50.10
74364;DHT22;62797;49.740;10.154;2024-01-16T03:49:42;-0.80;49.50
74364;DHT22;62797;49.740;10.154;2024-01-16T03:52:08;-0.80;49.90
74364;DHT22;62797;49.740;10.154;2024-01-16T03:54:34;-0.80;49.70
74364;DHT22;62797;49.740;10.154;2024-01-16T03:57:00;-0.80;50.20
74364;DHT22;62797;49.740;10.154;2024-01-16T03:59:25;-0.80;49.90
74364;DHT22;62797;49.740;10.154;2024-01-16T04:01:51;-0.90;50.20
74364;DHT22;62797;49.740;10.154;2024-01-16T04:04:18;-0.80;49.40
74364;DHT22;62797;49.740;10.154;2024-01-16T04:06:43;-0.80;49.70
74364;DHT22;62797;49.740;10.154;2024-01-16T04:09:10;-0.90;49.80
74364;DHT22;62797;49.740;10.154;2024-01-16T04:14:40;-0.90;49.70
74364;DHT22;62797;49.740;10.154;2024-01-16T04:17:05;-1.00;49.70
74364;DHT22;62797;49.740;10.154;2024-01-16T04:19:31;-1.00;50.20
74364;DHT22;62797;49.740;10.154;2024-01-16T04:21:59;-1.00;49.70
74364;DHT22;62797;49.740;10.154;2024-01-16T04:24:26;-0.90;49.80
74364;DHT22;62797;49.740;10.154;2024-01-16T04:26:52;-1.10;50.40
74364;DHT22;62797;49.740;10.154;2024-01-16T04:29:18;-1.20;50.50
74364;DHT22;62797;49.740;10.154;2024-01-16T04:31:43;-1.20;51.00
74364;DHT22;62797;49.740;10.154;2024-01-16T04:34:09;-1.30;51.30
74364;DHT22;62797;49.740;10.154;2024-01-16T04:36:35;-1.20;51.00
74364;DHT22;62797;49.740;10.154;2024-01-16T04:39:01;-1.20;50.70
74364;DHT22;62797;49.740;10.154;2024-01-16T04:41:26;-1.20;50.80
74364;DHT22;62797;49.740;10.154;2024-01-16T04:43:52;-1.20;51.10
74364;DHT22;62797;49.740;10.154;2024-01-16T04:46:18;-1.20;50.80
74364;DHT22;62797;49.740;10.154;2024-01-16T04:48:44;-1.10;50.30
74364;DHT22;62797;49.740;10.154;2024-01-16T04:51:12;-1.20;51.00
74364;DHT22;62797;49.740;10.154;2024-01-16T04:53:37;-1.20;50.70
74364;DHT22;62797;49.740;10.154;2024-01-16T04:56:03;-1.20;50.60
74364;DHT22;62797;49.740;10.154;2024-01-16T04:58:29;-1.10;50.10
74364;DHT22;62797;49.740;10.154;2024-01-16T05:00:55;-1.30;50.80
74364;DHT22;62797;49.740;10.154;2024-01-16T05:03:21;-1.30;51.20
74364;DHT22;62797;49.740;10.154;2024-01-16T05:05:46;-1.30;51.20
74364;DHT22;62797;49.740;10.154;2024-01-16T05:08:12;-1.40;51.80
74364;DHT22;62797;49.740;10.154;2024-01-16T05:10:38;-1.40;51.40
74364;DHT22;62797;49.740;10.154;2024-01-16T05:13:03;-1.40;52.20
74364;DHT22;62797;49.740;10.154;2024-01-16T05:15:29;-1.30;51.10
74364;DHT22;62797;49.740;10.154;2024-01-16T05:17:55;-1.30;50.80
74364;DHT22;62797;49.740;10.154;2024-01-16T05:20:20;-1.30;50.90
74364;DHT22;62797;49.740;10.154;2024-01-16T05:22:47;-1.40;51.50
74364;DHT22;62797;49.740;10.154;2024-01-16T05:25:12;-1.40;51.20
74364;DHT22;62797;49.740;10.154;2024-01-16T05:27:38;-1.40;52.20
74364;DHT22;62797;49.740;10.154;2024-01-16T05:30:04;-1.40;51.60
74364;DHT22;62797;49.740;10.154;2024-01-16T05:32:30;-1.40;51.00
74364;DHT22;62797;49.740;10.154;2024-01-16T05:34:56;-1.40;51.20
74364;DHT22;62797;49.740;10.154;2024-01-16T05:37:22;-1.50;51.40
74364;DHT22;62797;49.740;10.154;2024-01-16T05:39:48;-1.50;51.50
74364;DHT22;62797;49.740;10.154;2024-01-16T05:42:14;-1.70;52.40
74364;DHT22;62797;49.740;10.154;2024-01-16T05:44:40;-1.70;52.60
74364;DHT22;62797;49.740;10.154;2024-01-16T05:47:05;-1.70;52.30
74364;DHT22;62797;49.740;10.154;2024-01-16T05:49:31;-1.70;52.60
74364;DHT22;62797;49.740;10.154;2024-01-16T05:51:57;-1.80;53.10
74364;DHT22;62797;49.740;10.154;2024-01-16T05:54:23;-1.90;53.50
74364;DHT22;62797;49.740;10.154;2024-01-16T05:56:49;-1.80;53.30
74364;DHT22;62797;49.740;10.154;2024-01-16T05:59:15;-1.90;53.50
74364;DHT22;62797;49.740;10.154;2024-01-16T06:01:41;-1.90;53.60
74364;DHT22;62797;49.740;10.154;2024-01-16T06:04:07;-1.80;53.10
74364;DHT22;62797;49.740;10.154;2024-01-16T06:06:32;-1.80;53.00
74364;DHT22;62797;49.740;10.154;2024-01-16T06:08:58;-1.90;53.60
74364;DHT22;62797;49.740;10.154;2024-01-16T06:11:33;-1.90;53.80
74364;DHT22;62797;49.740;10.154;2024-01-16T06:14:00;-2.10;54.20
74364;DHT22;62797;49.740;10.154;2024-01-16T06:16:26;-2.00;53.40
74364;DHT22;62797;49.740;10.154;2024-01-16T06:18:51;-2.10;54.20
74364;DHT22;62797;49.740;10.154;2024-01-16T06:21:17;-2.10;54.30
74364;DHT22;62797;49.740;10.154;2024-01-16T06:23:43;-2.20;54.80
74364;DHT22;62797;49.740;10.154;2024-01-16T06:26:09;-2.20;55.00
74364;DHT22;62797;49.740;10.154;2024-01-16T06:28:35;-2.20;54.70
74364;DHT22;62797;49.740;10.154;2024-01-16T06:31:01;-2.10;54.90
74364;DHT22;62797;49.740;10.154;2024-01-16T06:33:27;-2.20;54.90
74364;DHT22;62797;49.740;10.154;2024-01-16T06:35:56;-2.20;55.00
74364;DHT22;62797;49.740;10.154;2024-01-16T06:38:21;-2.20;54.90
74364;DHT22;62797;49.740;10.154;2024-01-16T06:40:47;-2.20;54.90
74364;DHT22;62797;49.740;10.154;2024-01-16T06:43:14;-2.20;54.90
74364;DHT22;62797;49.740;10.154;2024-01-16T06:45:44;-2.20;54.90
74364;DHT22;62797;49.740;10.154;2024-01-16T06:48:10;-2.20;55.10
74364;DHT22;62797;49.740;10.154;2024-01-16T06:50:36;-2.30;55.50
74364;DHT22;62797;49.740;10.154;2024-01-16T06:53:01;-2.30;55.00
74364;DHT22;62797;49.740;10.154;2024-01-16T06:55:27;-2.30;55.20
74364;DHT22;62797;49.740;10.154;2024-01-16T06:57:53;-2.30;55.40
74364;DHT22;62797;49.740;10.154;2024-01-16T07:00:19;-2.30;55.50
74364;DHT22;62797;49.740;10.154;2024-01-16T07:02:46;-2.30;55.50
74364;DHT22;62797;49.740;10.154;2024-01-16T07:05:12;-2.30;55.50
74364;DHT22;62797;49.740;10.154;2024-01-16T07:07:38;-2.30;55.40
74364;DHT22;62797;49.740;10.154;2024-01-16T07:10:04;-2.30;55.50
74364;DHT22;62797;49.740;10.154;2024-01-16T07:12:34;-2.20;55.00
74364;DHT22;62797;49.740;10.154;2024-01-16T07:15:00;-2.30;55.40
74364;DHT22;62797;49.740;10.154;2024-01-16T07:17:25;-2.30;55.80
74364;DHT22;62797;49.740;10.154;2024-01-16T07:19:51;-2.30;55.40
74364;DHT22;62797;49.740;10.154;2024-01-16T07:22:17;-2.40;55.90
74364;DHT22;62797;49.740;10.154;2024-01-16T07:24:43;-2.30;55.60
74364;DHT22;62797;49.740;10.154;2024-01-16T07:27:08;-2.30;55.40
74364;DHT22;62797;49.740;10.154;2024-01-16T07:29:34;-2.30;55.10
74364;DHT22;62797;49.740;10.154;2024-01-16T07:32:00;-2.30;55.70
74364;DHT22;62797;49.740;10.154;2024-01-16T07:34:26;-2.40;56.20
74364;DHT22;62797;49.740;10.154;2024-01-16T07:36:51;-2.40;56.20
74364;DHT22;62797;49.740;10.154;2024-01-16T07:39:17;-2.40;56.00
74364;DHT22;62797;49.740;10.154;2024-01-16T07:41:43;-2.40;56.00
74364;DHT22;62797;49.740;10.154;2024-01-16T07:44:08;-2.40;56.10
74364;DHT22;62797;49.740;10.154;2024-01-16T07:46:34;-2.40;56.40
74364;DHT22;62797;49.740;10.154;2024-01-16T07:49:00;-2.40;55.90
74364;DHT22;62797;49.740;10.154;2024-01-16T07:51:26;-2.40;55.80
74364;DHT22;62797;49.740;10.154;2024-01-16T07:54:07;-2.40;56.80
74364;DHT22;62797;49.740;10.154;2024-01-16T07:56:37;-2.30;56.50
74364;DHT22;62797;49.740;10.154;2024-01-16T07:59:03;-2.30;56.50
74364;DHT22;62797;49.740;10.154;2024-01-16T08:01:29;-2.30;56.60
74364;DHT22;62797;49.740;10.154;2024-01-16T08:03:55;-2.20;56.00
74364;DHT22;62797;49.740;10.154;2024-01-16T08:06:21;-2.20;56.40
74364;DHT22;62797;49.740;10.154;2024-01-16T08:08:48;-2.10;56.10
74364;DHT22;62797;49.740;10.154;2024-01-16T08:11:14;-2.10;55.60
74364;DHT22;62797;49.740;10.154;2024-01-16T08:13:40;-2.10;56.10
74364;DHT22;62797;49.740;10.154;2024-01-16T08:16:06;-2.00;56.20
74364;DHT22;62797;49.740;10.154;2024-01-16T08:18:31;-2.00;56.30
74364;DHT22;62797;49.740;10.154;2024-01-16T08:20:57;-1.90;55.80
74364;DHT22;62797;49.740;10.154;2024-01-16T08:23:24;-1.90;55.70
74364;DHT22;62797;49.740;10.154;2024-01-16T08:25:50;-1.80;55.60
74364;DHT22;62797;49.740;10.154;2024-01-16T08:28:17;-1.70;55.10
74364;DHT22;62797;49.740;10.154;2024-01-16T08:30:43;-1.70;55.60
74364;DHT22;62797;49.740;10.154;2024-01-16T08:33:09;-1.60;55.20
74364;DHT22;62797;49.740;10.154;2024-01-16T08:35:35;-1.60;55.40
74364;DHT22;62797;49.740;10.154;2024-01-16T08:38:00;-1.40;54.70
74364;DHT22;62797;49.740;10.154;2024-01-16T08:40:27;-1.40;54.30
74364;DHT22;62797;49.740;10.154;2024-01-16T08:42:52;-1.30;54.00
74364;DHT22;62797;49.740;10.154;2024-01-16T08:45:21;-1.30;53.30
74364;DHT22;62797;49.740;10.154;2024-01-16T08:47:47;-1.30;53.10
74364;DHT22;62797;49.740;10.154;2024-01-16T08:50:13;-1.30;51.80
74364;DHT22;62797;49.740;10.154;2024-01-16T08:52:39;-1.20;52.40
74364;DHT22;62797;49.740;10.154;2024-01-16T08:55:05;-1.20;51.00
74364;DHT22;62797;49.740;10.154;2024-01-16T08:57:30;-1.10;52.20
74364;DHT22;62797;49.740;10.154;2024-01-16T08:59:56;-1.00;51.30
74364;DHT22;62797;49.740;10.154;2024-01-16T09:02:22;-1.00;50.90
74364;DHT22;62797;49.740;10.154;2024-01-16T09:04:49;-1.00;50.70
74364;DHT22;62797;49.740;10.154;2024-01-16T09:07:16;-1.00;51.10
74364;DHT22;62797;49.740;10.154;2024-01-16T09:09:42;-1.00;50.20
74364;DHT22;62797;49.740;10.154;2024-01-16T09:12:09;-0.90;50.30
74364;DHT22;62797;49.740;10.154;2024-01-16T09:14:34;-0.90;49.40
74364;DHT22;62797;49.740;10.154;2024-01-16T09:17:00;-1.00;50.10
74364;DHT22;62797;49.740;10.154;2024-01-16T09:19:26;-0.90;49.80
74364;DHT22;62797;49.740;10.154;2024-01-16T09:21:52;-0.90;50.00
74364;DHT22;62797;49.740;10.154;2024-01-16T09:24:17;-0.80;50.00
74364;DHT22;62797;49.740;10.154;2024-01-16T09:26:44;-0.80;49.40
74364;DHT22;62797;49.740;10.154;2024-01-16T09:29:10;-0.80;48.90
74364;DHT22;62797;49.740;10.154;2024-01-16T09:31:36;-0.70;48.20
74364;DHT22;62797;49.740;10.154;2024-01-16T09:34:03;-0.60;48.60
74364;DHT22;62797;49.740;10.154;2024-01-16T09:36:29;-0.60;47.30
74364;DHT22;62797;49.740;10.154;2024-01-16T09:38:55;-0.50;46.30
74364;DHT22;62797;49.740;10.154;2024-01-16T09:41:20;-0.50;47.30
74364;DHT22;62797;49.740;10.154;2024-01-16T09:43:47;-0.40;47.60
74364;DHT22;62797;49.740;10.154;2024-01-16T09:46:15;-0.30;46.90
74364;DHT22;62797;49.740;10.154;2024-01-16T09:48:44;-0.30;47.30
74364;DHT22;62797;49.740;10.154;2024-01-16T09:51:11;-0.30;47.70
74364;DHT22;62797;49.740;10.154;2024-01-16T09:53:41;-0.20;46.70
74364;DHT22;62797;49.740;10.154;2024-01-16T09:56:21;-0.10;45.60
74364;DHT22;62797;49.740;10.154;2024-01-16T09:58:49;-0.10;44.90
74364;DHT22;62797;49.740;10.154;2024-01-16T10:01:16;-0.10;44.00
74364;DHT22;62797;49.740;10.154;2024-01-16T10:03:45;-0.10;45.10
74364;DHT22;62797;49.740;10.154;2024-01-16T10:06:12;-0.10;44.60
74364;DHT22;62797;49.740;10.154;2024-01-16T10:08:39;-0.10;44.20
74364;DHT22;62797;49.740;10.154;2024-01-16T10:11:06;-0.20;45.20
74364;DHT22;62797;49.740;10.154;2024-01-16T10:13:33;-0.10;45.60
74364;DHT22;62797;49.740;10.154;2024-01-16T10:15:59;0.00;45.50
74364;DHT22;62797;49.740;10.154;2024-01-16T10:18:26;0.00;44.70
74364;DHT22;62797;49.740;10.154;2024-01-16T10:20:53;0.20;42.40
74364;DHT22;62797;49.740;10.154;2024-01-16T10:23:37;0.00;42.90
74364;DHT22;62797;49.740;10.154;2024-01-16T10:28:39;0.10;43.10
74364;DHT22;62797;49.740;10.154;2024-01-16T10:31:08;0.10;43.00
74364;DHT22;62797;49.740;10.154;2024-01-16T10:33:34;0.00;43.70
74364;DHT22;62797;49.740;10.154;2024-01-16T10:36:12;0.10;43.00
74364;DHT22;62797;49.740;10.154;2024-01-16T10:38:44;0.20;41.60
74364;DHT22;62797;49.740;10.154;2024-01-16T10:41:12;0.10;42.10
74364;DHT22;62797;49.740;10.154;2024-01-16T10:43:38;0.10;42.10
74364;DHT22;62797;49.740;10.154;2024-01-16T10:46:23;0.20;42.90
74364;DHT22;62797;49.740;10.154;2024-01-16T10:49:02;0.20;42.90
74364;DHT22;62797;49.740;10.154;2024-01-16T10:51:29;0.30;40.80
74364;DHT22;62797;49.740;10.154;2024-01-16T10:53:59;0.20;42.20
74364;DHT22;62797;49.740;10.154;2024-01-16T10:56:28;0.20;41.90
74364;DHT22;62797;49.740;10.154;2024-01-16T11:01:43;0.30;40.90
74364;DHT22;62797;49.740;10.154;2024-01-16T11:04:12;0.30;41.60
74364;DHT22;62797;49.740;10.154;2024-01-16T11:06:38;0.40;40.50
74364;DHT22;62797;49.740;10.154;2024-01-16T11:09:05;0.50;41.10
74364;DHT22;62797;49.740;10.154;2024-01-16T11:11:33;0.40;39.70
74364;DHT22;62797;49.740;10.154;2024-01-16T11:14:02;0.40;39.80
74364;DHT22;62797;49.740;10.154;2024-01-16T11:16:30;0.50;40.30
74364;DHT22;62797;49.740;10.154;2024-01-16T11:18:57;0.60;39.90
74364;DHT22;62797;49.740;10.154;2024-01-16T11:21:23;0.70;39.40
74364;DHT22;62797;49.740;10.154;2024-01-16T11:23:50;0.70;39.20
74364;DHT22;62797;49.740;10.154;2024-01-16T11:26:32;0.60;39.70
74364;DHT22;62797;49.740;10.154;2024-01-16T11:28:59;0.80;39.10
74364;DHT22;62797;49.740;10.154;2024-01-16T11:31:33;0.90;37.90
74364;DHT22;62797;49.740;10.154;2024-01-16T11:34:00;0.70;39.30
74364;DHT22;62797;49.740;10.154;2024-01-16T11:36:51;0.80;39.40
74364;DHT22;62797;49.740;10.154;2024-01-16T11:39:23;0.90;37.90
74364;DHT22;62797;49.740;10.154;2024-01-16T11:41:56;0.80;38.60
74364;DHT22;62797;49.740;10.154;2024-01-16T11:44:46;0.90;38.40
74364;DHT22;62797;49.740;10.154;2024-01-16T11:47:30;0.90;37.60
74364;DHT22;62797;49.740;10.154;2024-01-16T11:50:12;0.80;38.40
74364;DHT22;62797;49.740;10.154;2024-01-16T11:52:52;0.80;37.90
74364;DHT22;62797;49.740;10.154;2024-01-16T11:55:27;0.70;38.60
74364;DHT22;62797;49.740;10.154;2024-01-16T12:00:41;0.90;36.90
74364;DHT22;62797;49.740;10.154;2024-01-16T12:03:08;0.80;37.50
74364;DHT22;62797;49.740;10.154;2024-01-16T12:05:34;0.80;37.20
74364;DHT22;62797;49.740;10.154;2024-01-16T12:07:59;0.90;36.10
74364;DHT22;62797;49.740;10.154;2024-01-16T12:10:29;0.80;36.00
74364;DHT22;62797;49.740;10.154;2024-01-16T12:13:00;0.90;36.70
74364;DHT22;62797;49.740;10.154;2024-01-16T12:15:27;0.90;36.40
74364;DHT22;62797;49.740;10.154;2024-01-16T12:17:57;0.90;36.10
74364;DHT22;62797;49.740;10.154;2024-01-16T12:20:25;1.00;36.70
74364;DHT22;62797;49.740;10.154;2024-01-16T12:22:54;1.00;36.50
74364;DHT22;62797;49.740;10.154;2024-01-16T12:25:20;1.10;36.60
74364;DHT22;62797;49.740;10.154;2024-01-16T12:28:00;1.20;35.90
74364;DHT22;62797;49.740;10.154;2024-01-16T12:30:36;1.30;35.20
74364;DHT22;62797;49.740;10.154;2024-01-16T12:33:12;1.20;34.80
74364;DHT22;62797;49.740;10.154;2024-01-16T12:35:42;1.20;35.00
74364;DHT22;62797;49.740;10.154;2024-01-16T12:38:11;1.30;34.80
74364;DHT22;62797;49.740;10.154;2024-01-16T12:40:39;1.30;35.10
74364;DHT22;62797;49.740;10.154;2024-01-16T12:43:06;1.40;35.50
74364;DHT22;62797;49.740;10.154;2024-01-16T12:45:33;1.50;34.60
74364;DHT22;62797;49.740;10.154;2024-01-16T12:48:00;1.60;35.20
74364;DHT22;62797;49.740;10.154;2024-01-16T12:50:27;1.70;32.90
74364;DHT22;62797;49.740;10.154;2024-01-16T12:53:09;1.70;32.40
74364;DHT22;62797;49.740;10.154;2024-01-16T12:55:37;1.70;33.80
74364;DHT22;62797;49.740;10.154;2024-01-16T13:00:49;2.00;33.30
74364;DHT22;62797;49.740;10.154;2024-01-16T13:03:19;2.10;32.00
74364;DHT22;62797;49.740;10.154;2024-01-16T13:05:59;1.90;30.90
74364;DHT22;62797;49.740;10.154;2024-01-16T13:08:26;1.80;31.10
74364;DHT22;62797;49.740;10.154;2024-01-16T13:11:05;1.60;31.10
74364;DHT22;62797;49.740;10.154;2024-01-16T13:13:31;1.50;32.20
74364;DHT22;62797;49.740;10.154;2024-01-16T13:15:59;1.40;32.40
74364;DHT22;62797;49.740;10.154;2024-01-16T13:18:26;1.30;32.70
74364;DHT22;62797;49.740;10.154;2024-01-16T13:20:54;1.20;32.20
74364;DHT22;62797;49.740;10.154;2024-01-16T13:23:21;1.20;33.40
74364;DHT22;62797;49.740;10.154;2024-01-16T13:25:49;1.30;33.70
74364;DHT22;62797;49.740;10.154;2024-01-16T13:28:16;1.20;34.60
74364;DHT22;62797;49.740;10.154;2024-01-16T13:30:43;1.20;32.90
74364;DHT22;62797;49.740;10.154;2024-01-16T13:33:09;1.10;33.40
74364;DHT22;62797;49.740;10.154;2024-01-16T13:35:37;1.20;33.60
74364;DHT22;62797;49.740;10.154;2024-01-16T13:38:05;1.20;33.10
74364;DHT22;62797;49.740;10.154;2024-01-16T13:40:31;1.10;33.40
74364;DHT22;62797;49.740;10.154;2024-01-16T13:42:58;1.00;33.30
74364;DHT22;62797;49.740;10.154;2024-01-16T13:45:24;1.10;33.60
74364;DHT22;62797;49.740;10.154;2024-01-16T13:47:49;1.00;33.60
74364;DHT22;62797;49.740;10.154;2024-01-16T13:50:15;1.00;34.30
74364;DHT22;62797;49.740;10.154;2024-01-16T13:52:43;1.00;33.60
74364;DHT22;62797;49.740;10.154;2024-01-16T13:55:09;0.90;34.30
74364;DHT22;62797;49.740;10.154;2024-01-16T13:57:35;1.00;33.50
74364;DHT22;62797;49.740;10.154;2024-01-16T14:00:05;0.90;33.70
74364;DHT22;62797;49.740;10.154;2024-01-16T14:02:39;0.80;33.90
74364;DHT22;62797;49.740;10.154;2024-01-16T14:05:08;0.90;33.80
74364;DHT22;62797;49.740;10.154;2024-01-16T14:07:39;0.90;33.80
74364;DHT22;62797;49.740;10.154;2024-01-16T14:10:08;0.90;34.20
74364;DHT22;62797;49.740;10.154;2024-01-16T14:12:45;0.90;34.70
74364;DHT22;62797;49.740;10.154;2024-01-16T14:15:18;0.90;34.00
74364;DHT22;62797;49.740;10.154;2024-01-16T14:17:47;1.00;34.30
74364;DHT22;62797;49.740;10.154;2024-01-16T14:20:14;1.00;33.10
74364;DHT22;62797;49.740;10.154;2024-01-16T14:22:40;1.00;33.80
74364;DHT22;62797;49.740;10.154;2024-01-16T14:25:07;0.90;34.00
74364;DHT22;62797;49.740;10.154;2024-01-16T14:27:43;0.90;33.20
74364;DHT22;62797;49.740;10.154;2024-01-16T14:30:14;0.90;33.80
74364;DHT22;62797;49.740;10.154;2024-01-16T14:32:43;0.90;34.30
74364;DHT22;62797;49.740;10.154;2024-01-16T14:35:13;1.00;33.60
74364;DHT22;62797;49.740;10.154;2024-01-16T14:37:40;1.00;32.70
74364;DHT22;62797;49.740;10.154;2024-01-16T14:40:07;0.80;33.30
74364;DHT22;62797;49.740;10.154;2024-01-16T14:42:40;0.80;33.50
74364;DHT22;62797;49.740;10.154;2024-01-16T14:45:07;0.80;33.80
74364;DHT22;62797;49.740;10.154;2024-01-16T14:47:36;0.80;32.90
74364;DHT22;62797;49.740;10.154;2024-01-16T14:50:02;0.80;32.70
74364;DHT22;62797;49.740;10.154;2024-01-16T14:52:29;0.70;33.00
74364;DHT22;62797;49.740;10.154;2024-01-16T14:54:56;0.70;33.20
74364;DHT22;62797;49.740;10.154;2024-01-16T14:57:22;0.70;33.80
74364;DHT22;62797;49.740;10.154;2024-01-16T14:59:48;0.70;34.20
74364;DHT22;62797;49.740;10.154;2024-01-16T15:02:14;0.70;34.10
74364;DHT22;62797;49.740;10.154;2024-01-16T15:04:42;0.70;34.90
74364;DHT22;62797;49.740;10.154;2024-01-16T15:07:09;0.70;35.10
74364;DHT22;62797;49.740;10.154;2024-01-16T15:09:35;0.70;35.30
74364;DHT22;62797;49.740;10.154;2024-01-16T15:12:06;0.70;35.50
74364;DHT22;62797;49.740;10.154;2024-01-16T15:14:33;0.70;35.30
74364;DHT22;62797;49.740;10.154;2024-01-16T15:16:59;0.70;35.20
74364;DHT22;62797;49.740;10.154;2024-01-16T15:19:25;0.70;35.20
74364;DHT22;62797;49.740;10.154;2024-01-16T15:21:50;0.70;35.60
74364;DHT22;62797;49.740;10.154;2024-01-16T15:24:16;0.70;35.20
74364;DHT22;62797;49.740;10.154;2024-01-16T15:26:47;0.60;36.10
74364;DHT22;62797;49.740;10.154;2024-01-16T15:29:13;0.50;37.70
74364;DHT22;62797;49.740;10.154;2024-01-16T15:31:38;0.40;38.00
74364;DHT22;62797;49.740;10.154;2024-01-16T15:34:04;0.30;38.50